createdAt,value
2022-10-05T00:00:03.885Z,6.20
2022-10-05T00:02:32.539Z,6.23
2022-10-05T00:04:59.602Z,6.40
2022-10-05T00:07:26.441Z,6.60
2022-10-05T00:09:58.831Z,6.47
2022-10-05T00:12:28.207Z,6.40
2022-10-05T00:15:00.964Z,6.37
2022-10-05T00:17:30.352Z,6.07
2022-10-05T00:19:57.424Z,6.77
2022-10-05T00:22:32.717Z,6.80
2022-10-05T00:25:02.450Z,6.80
2022-10-05T00:27:36.591Z,7.33
2022-10-05T00:30:19.228Z,7.17
2022-10-05T00:32:47.109Z,6.50
2022-10-05T00:35:15.696Z,6.53
2022-10-05T00:37:43.646Z,6.47
2022-10-05T00:40:32.516Z,6.93
2022-10-05T00:43:29.522Z,7.07
2022-10-05T00:46:21.100Z,7.10
2022-10-05T00:49:11.593Z,6.17
2022-10-05T00:51:41.264Z,6.60
2022-10-05T00:54:37.119Z,6.27
2022-10-05T00:57:38.295Z,6.87
2022-10-05T01:00:13.029Z,7.00
2022-10-05T01:03:05.294Z,6.23
2022-10-05T01:06:01.131Z,7.00
2022-10-05T01:08:36.323Z,7.13
2022-10-05T01:11:17.199Z,6.90
2022-10-05T01:14:10.145Z,7.00
2022-10-05T01:17:02.252Z,6.20
2022-10-05T01:20:00.805Z,6.67
2022-10-05T01:23:08.599Z,6.70
2022-10-05T01:25:53.481Z,6.93
2022-10-05T01:28:24.085Z,6.83
2022-10-05T01:31:33.483Z,6.20
2022-10-05T01:34:17.018Z,6.50
2022-10-05T01:37:18.991Z,6.47
2022-10-05T01:40:27.001Z,6.13
2022-10-05T01:43:19.628Z,6.87
2022-10-05T01:46:01.966Z,6.17
2022-10-05T01:48:28.715Z,6.50
2022-10-05T01:51:37.819Z,6.47
2022-10-05T01:54:31.428Z,6.27
2022-10-05T01:57:22.297Z,6.40
2022-10-05T02:00:07.750Z,6.63
2022-10-05T02:02:41.288Z,6.77
2022-10-05T02:05:18.329Z,6.40
2022-10-05T02:08:15.671Z,6.23
2022-10-05T02:10:44.032Z,7.00
2022-10-05T02:13:15.927Z,6.67
2022-10-05T02:15:48.287Z,6.90
2022-10-05T02:18:20.287Z,6.87
2022-10-05T02:20:49.029Z,7.43
2022-10-05T02:23:22.204Z,7.10
2022-10-05T02:25:52.273Z,7.30
2022-10-05T02:28:44.543Z,6.93
2022-10-05T02:31:18.088Z,7.07
2022-10-05T02:33:45.174Z,7.27
2022-10-05T02:36:14.758Z,7.30
2022-10-05T02:39:12.007Z,6.90
2022-10-05T02:41:57.749Z,7.33
2022-10-05T02:44:59.054Z,7.37
2022-10-05T02:47:43.370Z,6.73
2022-10-05T02:50:32.568Z,7.13
2022-10-05T02:53:23.528Z,7.40
2022-10-05T02:56:08.504Z,7.53
2022-10-05T02:59:16.302Z,8.03
2022-10-05T03:01:54.943Z,7.80
2022-10-05T03:04:48.559Z,7.83
2022-10-05T03:07:27.749Z,7.93
2022-10-05T03:10:01.298Z,8.03
2022-10-05T03:12:53.049Z,8.20
2022-10-05T03:15:48.778Z,7.90
2022-10-05T03:18:37.287Z,7.77
2022-10-05T03:21:25.608Z,7.90
2022-10-05T03:24:40.241Z,7.53
2022-10-05T03:27:22.852Z,7.87
2022-10-05T03:30:27.639Z,7.70
2022-10-05T03:33:17.640Z,8.67
2022-10-05T03:35:47.300Z,7.70
2022-10-05T03:38:29.277Z,8.67
2022-10-05T03:41:05.005Z,7.93
2022-10-05T03:43:56.195Z,8.07
2022-10-05T03:46:50.740Z,8.17
2022-10-05T03:49:22.962Z,8.43
2022-10-05T03:52:23.267Z,7.97
2022-10-05T03:55:35.707Z,8.93
2022-10-05T03:58:13.745Z,7.90
2022-10-05T04:00:43.687Z,8.30
2022-10-05T04:03:18.863Z,8.03
2022-10-05T04:06:03.039Z,7.77
2022-10-05T04:08:50.712Z,7.93
2022-10-05T04:11:53.372Z,8.23
2022-10-05T04:14:38.853Z,7.73
2022-10-05T04:17:11.642Z,7.47
2022-10-05T04:20:07.506Z,7.33
2022-10-05T04:22:37.158Z,7.50
2022-10-05T04:26:05.653Z,6.90
2022-10-05T04:28:53.921Z,7.43
2022-10-05T04:31:41.115Z,7.50
2022-10-05T04:34:34.024Z,6.77
2022-10-05T04:37:06.384Z,7.23
2022-10-05T04:39:38.897Z,7.40
2022-10-05T04:42:30.933Z,7.13
2022-10-05T04:45:02.677Z,7.03
2022-10-05T04:47:50.646Z,7.13
2022-10-05T04:50:48.009Z,6.73
2022-10-05T04:53:35.782Z,7.10
2022-10-05T04:56:15.630Z,6.67
2022-10-05T04:59:07.043Z,7.03
2022-10-05T05:01:33.737Z,6.93
2022-10-05T05:04:09.588Z,7.40
2022-10-05T05:06:45.617Z,7.63
2022-10-05T05:09:15.268Z,8.07
2022-10-05T05:12:04.499Z,7.40
2022-10-05T05:14:52.224Z,7.23
2022-10-05T05:17:41.046Z,7.60
2022-10-05T05:20:22.571Z,7.53
2022-10-05T05:22:55.403Z,7.57
2022-10-05T05:25:46.602Z,8.03
2022-10-05T05:28:51.566Z,8.50
2022-10-05T05:31:48.628Z,8.30
2022-10-05T05:34:40.974Z,8.97
2022-10-05T05:37:47.753Z,8.60
2022-10-05T05:40:20.801Z,8.03
2022-10-05T05:43:04.457Z,8.37
2022-10-05T05:45:40.093Z,7.93
2022-10-05T05:48:22.183Z,7.87
2022-10-05T05:51:03.947Z,8.07
2022-10-05T05:53:50.860Z,8.27
2022-10-05T05:56:28.093Z,8.03
2022-10-05T05:58:59.363Z,8.10
2022-10-05T06:02:01.196Z,7.90
2022-10-05T06:04:41.665Z,7.97
2022-10-05T06:07:16.347Z,7.50
2022-10-05T06:09:51.636Z,7.73
2022-10-05T06:12:22.957Z,7.70
2022-10-05T06:14:56.676Z,7.50
2022-10-05T06:17:42.306Z,7.70
2022-10-05T06:20:20.800Z,7.10
2022-10-05T06:22:49.329Z,7.47
2022-10-05T06:25:56.276Z,7.73
2022-10-05T06:28:25.860Z,7.33
2022-10-05T06:31:18.873Z,7.40
2022-10-05T06:34:16.646Z,7.03
2022-10-05T06:36:50.321Z,7.80
2022-10-05T06:39:25.808Z,7.20
2022-10-05T06:41:59.573Z,7.50
2022-10-05T06:44:36.902Z,7.63
2022-10-05T06:47:18.226Z,7.60
2022-10-05T06:50:10.201Z,6.87
2022-10-05T06:53:02.624Z,7.23
2022-10-05T06:55:44.342Z,6.77
2022-10-05T06:58:42.688Z,6.43
2022-10-05T07:01:18.377Z,6.40
2022-10-05T07:04:06.942Z,7.43
2022-10-05T07:06:39.400Z,7.20
2022-10-05T07:09:21.383Z,6.10
2022-10-05T07:12:05.390Z,6.80
2022-10-05T07:14:52.243Z,6.67
2022-10-05T07:17:34.064Z,6.70
2022-10-05T07:20:36.882Z,8.10
2022-10-05T07:23:41.957Z,6.80
2022-10-05T07:26:19.237Z,6.63
2022-10-05T07:28:49.170Z,7.17
2022-10-05T07:31:30.535Z,7.03
2022-10-05T07:34:07.052Z,6.90
2022-10-05T07:36:54.982Z,6.57
2022-10-05T07:39:23.495Z,7.23
2022-10-05T07:41:59.397Z,7.17
2022-10-05T07:44:37.464Z,6.90
2022-10-05T07:47:22.886Z,6.77
2022-10-05T07:49:59.576Z,6.40
2022-10-05T07:52:40.945Z,6.77
2022-10-05T07:55:32.005Z,6.90
2022-10-05T07:58:24.945Z,6.73
2022-10-05T08:01:13.439Z,6.13
2022-10-05T08:04:03.697Z,6.50
2022-10-05T08:06:42.971Z,6.00
2022-10-05T08:09:26.260Z,6.00
2022-10-05T08:12:16.966Z,6.17
2022-10-05T08:14:46.509Z,6.07
2022-10-05T08:17:39.934Z,6.40
2022-10-05T08:20:23.120Z,5.53
2022-10-05T08:22:58.066Z,6.10
2022-10-05T08:26:12.406Z,5.80
2022-10-05T08:28:47.073Z,6.20
2022-10-05T08:31:25.048Z,5.40
2022-10-05T08:34:19.885Z,5.67
2022-10-05T08:36:59.335Z,5.87
2022-10-05T08:39:31.505Z,5.70
2022-10-05T08:42:35.774Z,5.80
2022-10-05T08:45:08.533Z,5.80
2022-10-05T08:48:08.357Z,5.30
2022-10-05T08:50:47.052Z,5.90
2022-10-05T08:53:34.910Z,5.07
2022-10-05T08:56:30.084Z,5.77
2022-10-05T08:59:09.135Z,5.27
2022-10-05T09:02:00.437Z,4.73
2022-10-05T09:04:44.456Z,4.97
2022-10-05T09:07:43.050Z,5.07
2022-10-05T09:10:47.374Z,5.10
2022-10-05T09:13:38.936Z,4.77
2022-10-05T09:16:35.915Z,5.43
2022-10-05T09:19:37.640Z,5.27
2022-10-05T09:22:10.614Z,4.97
2022-10-05T09:25:08.276Z,5.50
2022-10-05T09:27:43.132Z,5.03
2022-10-05T09:30:27.497Z,5.30
2022-10-05T09:33:29.463Z,5.33
2022-10-05T09:36:08.286Z,4.53
2022-10-05T09:38:56.074Z,4.40
2022-10-05T09:41:38.043Z,4.40
2022-10-05T09:44:16.812Z,4.47
2022-10-05T09:47:12.718Z,4.20
2022-10-05T09:49:45.632Z,4.60
2022-10-05T09:52:33.376Z,4.60
2022-10-05T09:55:34.212Z,4.03
2022-10-05T09:58:23.217Z,4.00
2022-10-05T10:01:32.698Z,4.27
2022-10-05T10:04:38.638Z,4.20
2022-10-05T10:07:24.013Z,3.83
2022-10-05T10:10:35.023Z,4.30
2022-10-05T10:13:28.452Z,4.07
2022-10-05T10:16:07.304Z,3.93
2022-10-05T10:18:53.172Z,3.97
2022-10-05T10:21:42.290Z,4.10
2022-10-05T10:24:42.668Z,3.63
2022-10-05T10:27:32.158Z,4.47
2022-10-05T10:30:25.136Z,3.75
2022-10-05T10:33:31.529Z,4.17
2022-10-05T10:36:13.136Z,3.73
2022-10-05T10:39:04.576Z,3.60
2022-10-05T10:42:02.058Z,4.00
2022-10-05T10:45:10.968Z,3.47
2022-10-05T10:47:52.486Z,3.57
2022-10-05T10:50:38.090Z,3.75
2022-10-05T10:53:31.915Z,3.63
2022-10-05T10:56:32.768Z,3.67
2022-10-05T10:59:16.886Z,3.50
2022-10-05T11:02:08.312Z,3.53
2022-10-05T11:04:54.124Z,3.77
2022-10-05T11:07:42.204Z,3.70
2022-10-05T11:10:20.854Z,3.77
2022-10-05T11:12:59.930Z,3.93
2022-10-05T11:15:45.272Z,3.83
2022-10-05T11:18:44.188Z,3.60
2022-10-05T11:21:36.544Z,3.63
2022-10-05T11:24:09.396Z,3.83
2022-10-05T11:27:05.918Z,3.53
2022-10-05T11:30:02.061Z,3.57
2022-10-05T11:32:53.929Z,3.87
2022-10-05T11:35:47.028Z,4.00
2022-10-05T11:38:36.965Z,3.60
2022-10-05T11:41:23.394Z,4.00
2022-10-05T11:44:06.314Z,3.60
2022-10-05T11:46:36.661Z,3.87
2022-10-05T11:49:33.005Z,3.37
2022-10-05T11:52:10.897Z,3.10
2022-10-05T11:55:09.738Z,3.10
2022-10-05T11:57:58.819Z,3.03
2022-10-05T12:00:50.045Z,3.10
2022-10-05T12:03:16.856Z,3.30
2022-10-05T12:06:03.442Z,2.73
2022-10-05T12:09:07.863Z,2.83
2022-10-05T12:11:34.673Z,2.60
2022-10-05T12:14:20.402Z,3.30
2022-10-05T12:16:58.953Z,3.03
2022-10-05T12:19:36.887Z,2.43
2022-10-05T12:22:32.766Z,2.63
2022-10-05T12:25:17.932Z,2.90
2022-10-05T12:27:47.482Z,2.37
2022-10-05T12:30:14.272Z,2.30
2022-10-05T12:32:56.893Z,2.10
2022-10-05T12:35:53.814Z,2.13
2022-10-05T12:38:24.881Z,2.33
2022-10-05T12:41:07.340Z,2.20
2022-10-05T12:43:55.814Z,2.20
2022-10-05T12:46:46.921Z,2.13
2022-10-05T12:49:19.725Z,2.13
2022-10-05T12:51:57.267Z,3.27
2022-10-05T12:54:42.341Z,2.27
2022-10-05T12:57:15.368Z,2.57
2022-10-05T12:59:58.789Z,2.10
2022-10-05T13:02:42.506Z,2.80
2022-10-05T13:05:09.354Z,2.07
2022-10-05T13:08:12.872Z,2.17
2022-10-05T13:10:49.522Z,2.70
2022-10-05T13:13:39.991Z,1.93
2022-10-05T13:16:16.181Z,2.23
2022-10-05T13:19:07.814Z,1.90
2022-10-05T13:21:49.419Z,1.80
2022-10-05T13:24:20.803Z,1.83
2022-10-05T13:26:59.322Z,1.70
2022-10-05T13:29:37.559Z,1.80
2022-10-05T13:32:23.379Z,1.80
2022-10-05T13:34:55.397Z,1.90
2022-10-05T13:37:39.022Z,1.60
2022-10-05T13:40:14.778Z,1.77
2022-10-05T13:43:22.699Z,1.90
2022-10-05T13:45:55.787Z,2.10
2022-10-05T13:48:46.405Z,1.87
2022-10-05T13:51:24.276Z,1.90
2022-10-05T13:53:58.161Z,1.87
2022-10-05T13:56:36.706Z,1.73
2022-10-05T13:59:20.418Z,1.50
2022-10-05T14:01:59.402Z,1.77
2022-10-05T14:04:43.690Z,1.70
2022-10-05T14:07:36.432Z,1.80
2022-10-05T14:10:11.496Z,1.77
2022-10-05T14:12:44.133Z,1.47
2022-10-05T14:15:23.088Z,1.60
2022-10-05T14:17:52.553Z,1.60
2022-10-05T14:20:26.933Z,1.87
2022-10-05T14:23:18.525Z,1.70
2022-10-05T14:25:54.408Z,1.60
2022-10-05T14:28:34.607Z,1.60
2022-10-05T14:31:12.981Z,1.63
2022-10-05T14:33:40.535Z,1.70
2022-10-05T14:36:22.429Z,1.77
2022-10-05T14:38:56.911Z,1.67
2022-10-05T14:41:27.747Z,1.63
2022-10-05T14:43:59.786Z,1.60
2022-10-05T14:46:34.068Z,1.83
2022-10-05T14:49:25.736Z,1.60
2022-10-05T14:51:54.275Z,1.73
2022-10-05T14:54:29.708Z,1.83
2022-10-05T14:57:29.316Z,1.70
2022-10-05T15:00:11.756Z,1.60
2022-10-05T15:02:45.166Z,1.70
2022-10-05T15:05:26.748Z,1.80
2022-10-05T15:08:02.646Z,1.40
2022-10-05T15:10:38.753Z,1.50
2022-10-05T15:13:15.581Z,1.70
2022-10-05T15:15:57.766Z,1.50
2022-10-05T15:18:31.948Z,1.40
2022-10-05T15:21:26.595Z,1.60
2022-10-05T15:24:20.306Z,1.50
2022-10-05T15:26:54.447Z,1.60
2022-10-05T15:29:36.139Z,1.40
2022-10-05T15:32:29.801Z,1.77
2022-10-05T15:35:15.962Z,1.60
2022-10-05T15:37:47.649Z,1.67
2022-10-05T15:40:34.686Z,1.60
2022-10-05T15:43:10.185Z,1.40
2022-10-05T15:45:41.905Z,1.60
2022-10-05T15:48:41.273Z,1.63
2022-10-05T15:51:25.501Z,1.40
2022-10-05T15:54:23.306Z,1.50
2022-10-05T15:56:59.335Z,1.60
2022-10-05T15:59:54.679Z,1.30
2022-10-05T16:02:29.883Z,1.33
2022-10-05T16:05:40.817Z,1.53
2022-10-05T16:08:39.695Z,1.80
2022-10-05T16:11:14.590Z,1.40
2022-10-05T16:13:55.150Z,1.50
2022-10-05T16:16:45.087Z,1.40
2022-10-05T16:19:38.827Z,1.43
2022-10-05T16:22:28.032Z,1.53
2022-10-05T16:25:08.550Z,1.23
2022-10-05T16:27:48.028Z,1.30
2022-10-05T16:30:23.186Z,1.20
2022-10-05T16:33:04.928Z,1.37
2022-10-05T16:35:46.513Z,1.17
2022-10-05T16:38:38.501Z,1.77
2022-10-05T16:41:28.231Z,3.07
2022-10-05T16:44:21.086Z,1.50
2022-10-05T16:47:27.555Z,1.53
2022-10-05T16:50:22.257Z,1.63
2022-10-05T16:53:02.012Z,1.77
2022-10-05T16:55:40.820Z,1.50
2022-10-05T16:58:20.132Z,1.70
2022-10-05T17:01:07.372Z,1.50
2022-10-05T17:03:51.545Z,1.20
2022-10-05T17:06:48.039Z,1.50
2022-10-05T17:09:38.009Z,2.07
2022-10-05T17:12:22.922Z,1.50
2022-10-05T17:15:13.328Z,1.80
2022-10-05T17:17:49.104Z,1.40
2022-10-05T17:20:32.849Z,1.60
2022-10-05T17:23:28.290Z,1.70
2022-10-05T17:25:56.248Z,1.83
2022-10-05T17:28:44.911Z,1.60
2022-10-05T17:31:21.863Z,1.30
2022-10-05T17:34:10.827Z,1.67
2022-10-05T17:36:50.038Z,1.80
2022-10-05T17:39:20.006Z,1.63
2022-10-05T17:41:47.454Z,1.77
2022-10-05T17:44:19.248Z,1.70
2022-10-05T17:46:49.172Z,1.50
2022-10-05T17:49:20.766Z,1.40
2022-10-05T17:52:08.934Z,1.50
2022-10-05T17:55:06.300Z,1.63
2022-10-05T17:57:36.957Z,1.90
2022-10-05T18:00:31.523Z,1.60
2022-10-05T18:02:58.648Z,1.80
2022-10-05T18:05:30.235Z,1.90
2022-10-05T18:08:16.495Z,2.10
2022-10-05T18:11:30.794Z,1.80
2022-10-05T18:14:19.981Z,1.97
2022-10-05T18:17:11.560Z,2.13
2022-10-05T18:19:39.622Z,1.90
2022-10-05T18:22:18.144Z,1.93
2022-10-05T18:25:09.235Z,2.03
2022-10-05T18:28:05.302Z,2.40
2022-10-05T18:31:02.640Z,1.90
2022-10-05T18:33:47.310Z,2.00
2022-10-05T18:36:38.228Z,2.20
2022-10-05T18:39:20.101Z,2.07
2022-10-05T18:41:59.349Z,2.23
2022-10-05T18:44:50.218Z,2.10
2022-10-05T18:47:29.213Z,2.40
2022-10-05T18:50:17.103Z,2.10
2022-10-05T18:53:11.415Z,2.70
2022-10-05T18:55:47.703Z,1.93
2022-10-05T18:58:22.381Z,2.10
2022-10-05T19:01:23.605Z,2.23
2022-10-05T19:04:22.490Z,2.10
2022-10-05T19:06:54.376Z,2.20
2022-10-05T19:09:38.839Z,2.40
2022-10-05T19:13:01.227Z,2.30
2022-10-05T19:15:51.159Z,2.30
2022-10-05T19:18:18.585Z,3.40
2022-10-05T19:21:04.549Z,2.50
2022-10-05T19:23:37.407Z,2.10
2022-10-05T19:26:30.143Z,1.90
2022-10-05T19:29:15.244Z,2.30
2022-10-05T19:31:58.263Z,2.37
2022-10-05T19:34:47.142Z,2.20
2022-10-05T19:37:24.229Z,2.17
2022-10-05T19:39:58.887Z,2.37
2022-10-05T19:42:56.314Z,1.73
2022-10-05T19:45:24.640Z,1.90
2022-10-05T19:48:00.333Z,1.93
2022-10-05T19:50:30.124Z,2.07
2022-10-05T19:53:14.020Z,2.50
2022-10-05T19:55:43.800Z,2.20
2022-10-05T19:58:17.501Z,2.20
2022-10-05T20:00:48.344Z,1.90
2022-10-05T20:03:27.695Z,1.87
2022-10-05T20:06:02.352Z,2.30
2022-10-05T20:08:40.378Z,1.80
2022-10-05T20:11:15.633Z,1.97
2022-10-05T20:13:47.285Z,1.63
2022-10-05T20:16:35.502Z,1.77
2022-10-05T20:19:44.005Z,1.80
2022-10-05T20:22:40.304Z,1.80
2022-10-05T20:25:31.330Z,1.83
2022-10-05T20:27:58.492Z,1.63
2022-10-05T20:30:28.302Z,1.53
2022-10-05T20:33:01.497Z,1.80
2022-10-05T20:35:30.733Z,1.60
2022-10-05T20:38:00.206Z,1.20
2022-10-05T20:40:29.261Z,1.50
2022-10-05T20:42:57.431Z,1.73
2022-10-05T20:45:24.398Z,1.90
2022-10-05T20:47:51.399Z,1.50
2022-10-05T20:50:18.512Z,1.77
2022-10-05T20:52:45.326Z,1.93
2022-10-05T20:55:12.469Z,1.50
2022-10-05T20:57:42.234Z,1.60
2022-10-05T21:00:13.223Z,1.83
2022-10-05T21:02:40.262Z,1.70
2022-10-05T21:05:08.128Z,1.70
2022-10-05T21:07:35.145Z,1.50
2022-10-05T21:10:03.800Z,1.90
2022-10-05T21:12:31.127Z,2.07
2022-10-05T21:14:59.700Z,1.90
2022-10-05T21:17:26.487Z,2.20
2022-10-05T21:19:53.173Z,1.83
2022-10-05T21:22:19.981Z,1.97
2022-10-05T21:24:46.799Z,2.23
2022-10-05T21:27:13.569Z,1.93
2022-10-05T21:29:41.414Z,2.00
2022-10-05T21:32:08.736Z,2.00
2022-10-05T21:34:35.707Z,1.97
2022-10-05T21:37:02.454Z,1.73
2022-10-05T21:39:29.250Z,1.80
2022-10-05T21:41:56.324Z,1.90
2022-10-05T21:44:23.075Z,1.80
2022-10-05T21:46:50.145Z,1.90
2022-10-05T21:49:18.938Z,2.10
2022-10-05T21:51:47.214Z,1.80
2022-10-05T21:54:19.905Z,1.77
2022-10-05T21:56:50.271Z,1.50
2022-10-05T21:59:20.143Z,1.90
2022-10-05T22:01:46.944Z,1.70
2022-10-05T22:04:15.025Z,1.97
2022-10-05T22:06:41.858Z,1.40
2022-10-05T22:09:08.617Z,2.03
2022-10-05T22:11:35.419Z,1.60
2022-10-05T22:14:02.899Z,1.70
2022-10-05T22:16:36.727Z,1.70
2022-10-05T22:19:05.387Z,2.10
2022-10-05T22:21:34.268Z,1.63
2022-10-05T22:24:02.756Z,1.70
2022-10-05T22:26:30.394Z,1.80
2022-10-05T22:28:57.249Z,1.70
2022-10-05T22:31:24.518Z,1.50
2022-10-05T22:33:52.003Z,1.50
2022-10-05T22:36:20.005Z,1.50
2022-10-05T22:38:47.564Z,1.60
2022-10-05T22:41:15.568Z,1.70
2022-10-05T22:43:42.282Z,1.80
2022-10-05T22:46:11.288Z,2.23
2022-10-05T22:48:38.713Z,1.70
2022-10-05T22:51:05.885Z,1.63
2022-10-05T22:53:32.738Z,1.63
2022-10-05T22:56:08.567Z,1.63
2022-10-05T22:58:35.962Z,1.60
2022-10-05T23:01:08.259Z,1.73
2022-10-05T23:03:35.656Z,2.00
2022-10-05T23:06:05.444Z,2.20
2022-10-05T23:08:33.814Z,2.00
2022-10-05T23:11:04.478Z,1.73
2022-10-05T23:13:31.386Z,1.90
2022-10-05T23:15:58.436Z,1.87
2022-10-05T23:18:25.825Z,1.90
2022-10-05T23:20:55.276Z,1.70
2022-10-05T23:23:23.279Z,1.90
2022-10-05T23:25:50.559Z,1.70
2022-10-05T23:28:17.620Z,1.97
2022-10-05T23:30:44.829Z,0.80
2022-10-05T23:33:11.715Z,0.77
2022-10-05T23:35:38.538Z,0.57
2022-10-05T23:38:05.318Z,0.63
2022-10-05T23:40:32.038Z,0.50
2022-10-05T23:42:58.795Z,0.50
2022-10-05T23:45:25.531Z,0.50
2022-10-05T23:47:52.261Z,0.53
2022-10-05T23:50:21.048Z,0.70
2022-10-05T23:52:47.877Z,0.50
2022-10-05T23:55:14.687Z,0.50
2022-10-05T23:57:41.510Z,0.50
